sensor_id;sensor_type;location;lat;lon;timestamp;P1;durP1;ratioP1;P2;durP2;ratioP2
15331;SDS011;7766;51.534;6.722;2024-02-21T00:02:07;50.00;;;25.57;;
15331;SDS011;7766;51.534;6.722;2024-02-21T00:04:33;27.17;;;11.73;;
15331;SDS011;7766;51.534;6.722;2024-02-21T00:06:59;29.37;;;11.77;;
15331;SDS011;7766;51.534;6.722;2024-02-21T00:09:25;21.53;;;10.47;;
15331;SDS011;7766;51.534;6.722;2024-02-21T00:11:51;26.27;;;11.37;;
15331;SDS011;7766;51.534;6.722;2024-02-21T00:14:17;22.20;;;11.10;;
15331;SDS011;7766;51.534;6.722;2024-02-21T00:16:42;27.93;;;12.33;;
15331;SDS011;7766;51.534;6.722;2024-02-21T00:19:08;32.30;;;11.80;;
15331;SDS011;7766;51.534;6.722;2024-02-21T00:21:34;25.50;;;11.20;;
15331;SDS011;7766;51.534;6.722;2024-02-21T00:23:59;25.27;;;11.53;;
15331;SDS011;7766;51.534;6.722;2024-02-21T00:26:25;26.53;;;11.27;;
15331;SDS011;7766;51.534;6.722;2024-02-21T00:28:51;22.17;;;11.17;;
15331;SDS011;7766;51.534;6.722;2024-02-21T00:31:17;25.57;;;11.50;;
15331;SDS011;7766;51.534;6.722;2024-02-21T00:33:43;24.23;;;11.23;;
15331;SDS011;7766;51.534;6.722;2024-02-21T00:36:09;21.00;;;11.10;;
15331;SDS011;7766;51.534;6.722;2024-02-21T00:38:34;27.50;;;11.30;;
15331;SDS011;7766;51.534;6.722;2024-02-21T00:41:00;22.13;;;12.13;;
15331;SDS011;7766;51.534;6.722;2024-02-21T00:43:26;22.53;;;10.90;;
15331;SDS011;7766;51.534;6.722;2024-02-21T00:45:52;19.77;;;11.50;;
15331;SDS011;7766;51.534;6.722;2024-02-21T00:48:18;25.37;;;11.23;;
15331;SDS011;7766;51.534;6.722;2024-02-21T00:50:43;27.53;;;12.10;;
15331;SDS011;7766;51.534;6.722;2024-02-21T00:53:09;25.00;;;10.60;;
15331;SDS011;7766;51.534;6.722;2024-02-21T00:55:35;24.27;;;13.07;;
15331;SDS011;7766;51.534;6.722;2024-02-21T00:58:01;25.20;;;11.13;;
15331;SDS011;7766;51.534;6.722;2024-02-21T01:00:27;27.17;;;12.13;;
15331;SDS011;7766;51.534;6.722;2024-02-21T01:02:53;26.20;;;11.03;;
15331;SDS011;7766;51.534;6.722;2024-02-21T01:05:19;26.17;;;12.50;;
15331;SDS011;7766;51.534;6.722;2024-02-21T01:07:45;24.30;;;12.17;;
15331;SDS011;7766;51.534;6.722;2024-02-21T01:10:11;26.10;;;11.90;;
15331;SDS011;7766;51.534;6.722;2024-02-21T01:12:36;21.63;;;11.10;;
15331;SDS011;7766;51.534;6.722;2024-02-21T01:15:02;27.50;;;12.40;;
15331;SDS011;7766;51.534;6.722;2024-02-21T01:17:28;22.90;;;11.90;;
15331;SDS011;7766;51.534;6.722;2024-02-21T01:19:53;22.07;;;11.90;;
15331;SDS011;7766;51.534;6.722;2024-02-21T01:22:19;27.37;;;12.03;;
15331;SDS011;7766;51.534;6.722;2024-02-21T01:24:45;25.87;;;11.73;;
15331;SDS011;7766;51.534;6.722;2024-02-21T01:27:10;22.67;;;11.40;;
15331;SDS011;7766;51.534;6.722;2024-02-21T01:29:36;30.83;;;16.70;;
15331;SDS011;7766;51.534;6.722;2024-02-21T01:32:02;22.77;;;12.03;;
15331;SDS011;7766;51.534;6.722;2024-02-21T01:34:28;23.13;;;10.57;;
15331;SDS011;7766;51.534;6.722;2024-02-21T01:36:54;23.40;;;11.43;;
15331;SDS011;7766;51.534;6.722;2024-02-21T01:39:19;24.77;;;11.53;;
15331;SDS011;7766;51.534;6.722;2024-02-21T01:41:45;21.60;;;10.00;;
15331;SDS011;7766;51.534;6.722;2024-02-21T01:44:11;20.40;;;10.93;;
15331;SDS011;7766;51.534;6.722;2024-02-21T01:46:37;23.37;;;9.87;;
15331;SDS011;7766;51.534;6.722;2024-02-21T01:49:03;25.87;;;10.43;;
15331;SDS011;7766;51.534;6.722;2024-02-21T01:51:29;24.63;;;10.53;;
15331;SDS011;7766;51.534;6.722;2024-02-21T01:53:55;22.33;;;9.70;;
15331;SDS011;7766;51.534;6.722;2024-02-21T01:56:23;21.33;;;10.10;;
15331;SDS011;7766;51.534;6.722;2024-02-21T01:58:49;17.20;;;10.03;;
15331;SDS011;7766;51.534;6.722;2024-02-21T02:01:16;21.37;;;9.97;;
15331;SDS011;7766;51.534;6.722;2024-02-21T02:03:42;19.93;;;9.57;;
15331;SDS011;7766;51.534;6.722;2024-02-21T02:06:10;21.23;;;10.00;;
15331;SDS011;7766;51.534;6.722;2024-02-21T02:08:35;23.67;;;10.47;;
15331;SDS011;7766;51.534;6.722;2024-02-21T02:11:02;23.40;;;10.87;;
15331;SDS011;7766;51.534;6.722;2024-02-21T02:13:28;22.00;;;10.20;;
15331;SDS011;7766;51.534;6.722;2024-02-21T02:15:54;22.67;;;10.10;;
15331;SDS011;7766;51.534;6.722;2024-02-21T02:18:20;21.13;;;10.03;;
15331;SDS011;7766;51.534;6.722;2024-02-21T02:20:46;25.00;;;10.13;;
15331;SDS011;7766;51.534;6.722;2024-02-21T02:25:39;18.77;;;9.67;;
15331;SDS011;7766;51.534;6.722;2024-02-21T02:28:06;15.43;;;8.40;;
15331;SDS011;7766;51.534;6.722;2024-02-21T02:30:33;16.90;;;8.97;;
15331;SDS011;7766;51.534;6.722;2024-02-21T02:32:59;18.10;;;9.40;;
15331;SDS011;7766;51.534;6.722;2024-02-21T02:35:25;21.47;;;9.30;;
15331;SDS011;7766;51.534;6.722;2024-02-21T02:37:51;17.97;;;9.63;;
15331;SDS011;7766;51.534;6.722;2024-02-21T02:40:17;19.07;;;9.27;;
15331;SDS011;7766;51.534;6.722;2024-02-21T02:42:43;19.20;;;9.30;;
15331;SDS011;7766;51.534;6.722;2024-02-21T02:45:09;18.03;;;9.80;;
15331;SDS011;7766;51.534;6.722;2024-02-21T02:47:35;16.27;;;8.23;;
15331;SDS011;7766;51.534;6.722;2024-02-21T02:50:01;19.23;;;9.10;;
15331;SDS011;7766;51.534;6.722;2024-02-21T02:52:27;16.43;;;8.77;;
15331;SDS011;7766;51.534;6.722;2024-02-21T02:54:53;17.70;;;9.03;;
15331;SDS011;7766;51.534;6.722;2024-02-21T02:57:21;18.83;;;9.07;;
15331;SDS011;7766;51.534;6.722;2024-02-21T02:59:53;17.30;;;8.83;;
15331;SDS011;7766;51.534;6.722;2024-02-21T03:02:18;21.17;;;9.30;;
15331;SDS011;7766;51.534;6.722;2024-02-21T03:04:44;19.60;;;8.90;;
15331;SDS011;7766;51.534;6.722;2024-02-21T03:07:11;21.70;;;9.60;;
15331;SDS011;7766;51.534;6.722;2024-02-21T03:09:37;16.27;;;8.33;;
15331;SDS011;7766;51.534;6.722;2024-02-21T03:12:03;18.10;;;9.33;;
15331;SDS011;7766;51.534;6.722;2024-02-21T03:14:30;16.33;;;8.23;;
15331;SDS011;7766;51.534;6.722;2024-02-21T03:16:55;20.43;;;9.33;;
15331;SDS011;7766;51.534;6.722;2024-02-21T03:19:21;22.70;;;8.80;;
15331;SDS011;7766;51.534;6.722;2024-02-21T03:21:48;18.70;;;7.97;;
15331;SDS011;7766;51.534;6.722;2024-02-21T03:24:15;18.27;;;9.07;;
15331;SDS011;7766;51.534;6.722;2024-02-21T03:26:40;17.33;;;8.50;;
15331;SDS011;7766;51.534;6.722;2024-02-21T03:29:06;18.60;;;9.03;;
15331;SDS011;7766;51.534;6.722;2024-02-21T03:31:33;20.10;;;8.20;;
15331;SDS011;7766;51.534;6.722;2024-02-21T03:34:00;16.83;;;7.87;;
15331;SDS011;7766;51.534;6.722;2024-02-21T03:36:26;21.33;;;8.63;;
15331;SDS011;7766;51.534;6.722;2024-02-21T03:38:51;17.40;;;7.70;;
15331;SDS011;7766;51.534;6.722;2024-02-21T03:41:17;18.03;;;8.20;;
15331;SDS011;7766;51.534;6.722;2024-02-21T03:43:43;20.10;;;7.90;;
15331;SDS011;7766;51.534;6.722;2024-02-21T03:46:08;13.63;;;7.67;;
15331;SDS011;7766;51.534;6.722;2024-02-21T03:48:35;18.57;;;6.93;;
15331;SDS011;7766;51.534;6.722;2024-02-21T03:51:01;16.47;;;7.53;;
15331;SDS011;7766;51.534;6.722;2024-02-21T03:53:27;16.03;;;8.03;;
15331;SDS011;7766;51.534;6.722;2024-02-21T03:55:53;12.87;;;7.90;;
15331;SDS011;7766;51.534;6.722;2024-02-21T03:58:19;17.50;;;7.27;;
15331;SDS011;7766;51.534;6.722;2024-02-21T04:00:45;12.17;;;7.80;;
15331;SDS011;7766;51.534;6.722;2024-02-21T04:03:11;14.97;;;7.50;;
15331;SDS011;7766;51.534;6.722;2024-02-21T04:05:37;14.10;;;8.37;;
15331;SDS011;7766;51.534;6.722;2024-02-21T04:08:04;18.47;;;8.17;;
15331;SDS011;7766;51.534;6.722;2024-02-21T04:10:30;20.93;;;8.33;;
15331;SDS011;7766;51.534;6.722;2024-02-21T04:12:56;11.70;;;7.23;;
15331;SDS011;7766;51.534;6.722;2024-02-21T04:15:22;16.57;;;7.60;;
15331;SDS011;7766;51.534;6.722;2024-02-21T04:17:48;17.20;;;7.27;;
15331;SDS011;7766;51.534;6.722;2024-02-21T04:20:14;14.60;;;7.47;;
15331;SDS011;7766;51.534;6.722;2024-02-21T04:22:41;13.93;;;7.40;;
15331;SDS011;7766;51.534;6.722;2024-02-21T04:25:12;21.47;;;7.63;;
15331;SDS011;7766;51.534;6.722;2024-02-21T04:27:38;15.53;;;7.20;;
15331;SDS011;7766;51.534;6.722;2024-02-21T04:30:05;10.93;;;6.50;;
15331;SDS011;7766;51.534;6.722;2024-02-21T04:32:31;11.63;;;6.30;;
15331;SDS011;7766;51.534;6.722;2024-02-21T04:34:57;11.00;;;6.87;;
15331;SDS011;7766;51.534;6.722;2024-02-21T04:37:22;13.27;;;7.43;;
15331;SDS011;7766;51.534;6.722;2024-02-21T04:39:48;10.27;;;6.57;;
15331;SDS011;7766;51.534;6.722;2024-02-21T04:42:14;17.83;;;7.60;;
15331;SDS011;7766;51.534;6.722;2024-02-21T04:44:40;17.27;;;6.93;;
15331;SDS011;7766;51.534;6.722;2024-02-21T04:47:06;18.40;;;7.10;;
15331;SDS011;7766;51.534;6.722;2024-02-21T04:49:33;16.00;;;7.00;;
15331;SDS011;7766;51.534;6.722;2024-02-21T04:51:59;13.37;;;6.50;;
15331;SDS011;7766;51.534;6.722;2024-02-21T04:54:25;13.23;;;6.53;;
15331;SDS011;7766;51.534;6.722;2024-02-21T04:56:51;12.67;;;6.43;;
15331;SDS011;7766;51.534;6.722;2024-02-21T04:59:16;12.00;;;6.50;;
15331;SDS011;7766;51.534;6.722;2024-02-21T05:01:42;12.80;;;6.13;;
15331;SDS011;7766;51.534;6.722;2024-02-21T05:04:08;15.53;;;5.40;;
15331;SDS011;7766;51.534;6.722;2024-02-21T05:06:39;13.90;;;5.73;;
15331;SDS011;7766;51.534;6.722;2024-02-21T05:09:09;11.93;;;5.80;;
15331;SDS011;7766;51.534;6.722;2024-02-21T05:11:36;12.67;;;5.77;;
15331;SDS011;7766;51.534;6.722;2024-02-21T05:14:02;10.23;;;6.30;;
15331;SDS011;7766;51.534;6.722;2024-02-21T05:16:28;11.10;;;5.87;;
15331;SDS011;7766;51.534;6.722;2024-02-21T05:18:54;11.33;;;5.30;;
15331;SDS011;7766;51.534;6.722;2024-02-21T05:21:21;10.00;;;5.70;;
15331;SDS011;7766;51.534;6.722;2024-02-21T05:23:48;12.27;;;5.30;;
15331;SDS011;7766;51.534;6.722;2024-02-21T05:26:19;13.57;;;5.87;;
15331;SDS011;7766;51.534;6.722;2024-02-21T05:28:46;11.60;;;5.63;;
15331;SDS011;7766;51.534;6.722;2024-02-21T05:31:12;15.63;;;5.60;;
15331;SDS011;7766;51.534;6.722;2024-02-21T05:33:39;10.03;;;5.20;;
15331;SDS011;7766;51.534;6.722;2024-02-21T05:36:05;11.53;;;5.47;;
15331;SDS011;7766;51.534;6.722;2024-02-21T05:38:31;10.00;;;5.00;;
15331;SDS011;7766;51.534;6.722;2024-02-21T05:40:56;11.00;;;6.03;;
15331;SDS011;7766;51.534;6.722;2024-02-21T05:43:22;8.67;;;5.10;;
15331;SDS011;7766;51.534;6.722;2024-02-21T05:45:47;11.23;;;5.73;;
15331;SDS011;7766;51.534;6.722;2024-02-21T05:48:13;9.40;;;5.10;;
15331;SDS011;7766;51.534;6.722;2024-02-21T05:50:39;11.33;;;5.40;;
15331;SDS011;7766;51.534;6.722;2024-02-21T05:53:05;15.27;;;5.73;;
15331;SDS011;7766;51.534;6.722;2024-02-21T05:55:31;15.97;;;5.33;;
15331;SDS011;7766;51.534;6.722;2024-02-21T05:57:56;12.97;;;5.70;;
15331;SDS011;7766;51.534;6.722;2024-02-21T06:00:22;11.00;;;5.83;;
15331;SDS011;7766;51.534;6.722;2024-02-21T06:02:48;12.23;;;5.97;;
15331;SDS011;7766;51.534;6.722;2024-02-21T06:05:14;10.80;;;5.30;;
15331;SDS011;7766;51.534;6.722;2024-02-21T06:07:40;12.53;;;5.87;;
15331;SDS011;7766;51.534;6.722;2024-02-21T06:10:06;16.53;;;5.70;;
15331;SDS011;7766;51.534;6.722;2024-02-21T06:12:33;13.70;;;6.47;;
15331;SDS011;7766;51.534;6.722;2024-02-21T06:14:58;14.23;;;6.00;;
15331;SDS011;7766;51.534;6.722;2024-02-21T06:17:24;15.03;;;6.07;;
15331;SDS011;7766;51.534;6.722;2024-02-21T06:19:49;14.23;;;6.73;;
15331;SDS011;7766;51.534;6.722;2024-02-21T06:22:15;15.53;;;6.40;;
15331;SDS011;7766;51.534;6.722;2024-02-21T06:24:41;12.60;;;6.07;;
15331;SDS011;7766;51.534;6.722;2024-02-21T06:27:06;14.63;;;6.50;;
15331;SDS011;7766;51.534;6.722;2024-02-21T06:29:33;16.23;;;7.00;;
15331;SDS011;7766;51.534;6.722;2024-02-21T06:31:59;11.93;;;6.50;;
15331;SDS011;7766;51.534;6.722;2024-02-21T06:34:25;15.97;;;6.80;;
15331;SDS011;7766;51.534;6.722;2024-02-21T06:36:51;13.43;;;6.43;;
15331;SDS011;7766;51.534;6.722;2024-02-21T06:39:17;13.20;;;7.00;;
15331;SDS011;7766;51.534;6.722;2024-02-21T06:41:42;12.90;;;6.67;;
15331;SDS011;7766;51.534;6.722;2024-02-21T06:44:08;13.60;;;6.33;;
15331;SDS011;7766;51.534;6.722;2024-02-21T06:46:34;14.67;;;6.83;;
15331;SDS011;7766;51.534;6.722;2024-02-21T06:49:00;19.17;;;7.13;;
15331;SDS011;7766;51.534;6.722;2024-02-21T06:51:27;12.70;;;6.03;;
15331;SDS011;7766;51.534;6.722;2024-02-21T06:53:53;16.27;;;5.83;;
15331;SDS011;7766;51.534;6.722;2024-02-21T06:56:19;12.70;;;6.97;;
15331;SDS011;7766;51.534;6.722;2024-02-21T06:58:45;12.60;;;6.70;;
15331;SDS011;7766;51.534;6.722;2024-02-21T07:01:11;12.63;;;6.20;;
15331;SDS011;7766;51.534;6.722;2024-02-21T07:03:37;11.87;;;6.10;;
15331;SDS011;7766;51.534;6.722;2024-02-21T07:06:03;11.97;;;6.33;;
15331;SDS011;7766;51.534;6.722;2024-02-21T07:08:28;17.17;;;6.33;;
15331;SDS011;7766;51.534;6.722;2024-02-21T07:10:54;15.50;;;6.53;;
15331;SDS011;7766;51.534;6.722;2024-02-21T07:13:20;12.83;;;5.80;;
15331;SDS011;7766;51.534;6.722;2024-02-21T07:15:47;16.00;;;6.10;;
15331;SDS011;7766;51.534;6.722;2024-02-21T07:18:13;14.17;;;6.40;;
15331;SDS011;7766;51.534;6.722;2024-02-21T07:20:39;12.97;;;6.37;;
15331;SDS011;7766;51.534;6.722;2024-02-21T07:23:06;12.83;;;6.17;;
15331;SDS011;7766;51.534;6.722;2024-02-21T07:25:32;10.80;;;5.70;;
15331;SDS011;7766;51.534;6.722;2024-02-21T07:27:58;16.90;;;6.67;;
15331;SDS011;7766;51.534;6.722;2024-02-21T07:30:23;14.57;;;6.20;;
15331;SDS011;7766;51.534;6.722;2024-02-21T07:32:50;14.53;;;6.37;;
15331;SDS011;7766;51.534;6.722;2024-02-21T07:35:16;13.90;;;5.90;;
15331;SDS011;7766;51.534;6.722;2024-02-21T07:37:44;15.20;;;6.23;;
15331;SDS011;7766;51.534;6.722;2024-02-21T07:40:13;13.47;;;6.17;;
15331;SDS011;7766;51.534;6.722;2024-02-21T07:42:40;13.13;;;5.93;;
15331;SDS011;7766;51.534;6.722;2024-02-21T07:45:06;10.83;;;5.80;;
15331;SDS011;7766;51.534;6.722;2024-02-21T07:47:32;13.90;;;6.50;;
15331;SDS011;7766;51.534;6.722;2024-02-21T07:49:58;9.97;;;5.20;;
15331;SDS011;7766;51.534;6.722;2024-02-21T07:52:23;11.00;;;5.60;;
15331;SDS011;7766;51.534;6.722;2024-02-21T07:54:49;18.50;;;5.93;;
15331;SDS011;7766;51.534;6.722;2024-02-21T07:57:15;11.30;;;5.80;;
15331;SDS011;7766;51.534;6.722;2024-02-21T07:59:41;11.43;;;5.47;;
15331;SDS011;7766;51.534;6.722;2024-02-21T08:02:07;10.47;;;5.73;;
15331;SDS011;7766;51.534;6.722;2024-02-21T08:04:33;14.77;;;6.13;;
15331;SDS011;7766;51.534;6.722;2024-02-21T08:06:59;14.23;;;5.70;;
15331;SDS011;7766;51.534;6.722;2024-02-21T08:09:27;12.50;;;5.97;;
15331;SDS011;7766;51.534;6.722;2024-02-21T08:11:56;10.13;;;4.70;;
15331;SDS011;7766;51.534;6.722;2024-02-21T08:14:22;8.40;;;3.63;;
15331;SDS011;7766;51.534;6.722;2024-02-21T08:16:49;13.60;;;6.07;;
15331;SDS011;7766;51.534;6.722;2024-02-21T08:19:15;10.27;;;5.17;;
15331;SDS011;7766;51.534;6.722;2024-02-21T08:21:42;14.50;;;4.97;;
15331;SDS011;7766;51.534;6.722;2024-02-21T08:24:07;10.27;;;4.83;;
15331;SDS011;7766;51.534;6.722;2024-02-21T08:26:32;11.53;;;5.90;;
15331;SDS011;7766;51.534;6.722;2024-02-21T08:28:58;10.03;;;5.10;;
15331;SDS011;7766;51.534;6.722;2024-02-21T08:31:25;9.10;;;4.40;;
15331;SDS011;7766;51.534;6.722;2024-02-21T08:33:56;12.13;;;4.67;;
15331;SDS011;7766;51.534;6.722;2024-02-21T08:36:27;8.57;;;4.20;;
15331;SDS011;7766;51.534;6.722;2024-02-21T08:38:54;11.27;;;3.47;;
15331;SDS011;7766;51.534;6.722;2024-02-21T08:41:20;7.70;;;4.20;;
15331;SDS011;7766;51.534;6.722;2024-02-21T08:43:48;9.93;;;4.17;;
15331;SDS011;7766;51.534;6.722;2024-02-21T08:46:14;11.63;;;4.47;;
15331;SDS011;7766;51.534;6.722;2024-02-21T08:48:39;10.70;;;4.87;;
15331;SDS011;7766;51.534;6.722;2024-02-21T08:51:06;8.43;;;4.77;;
15331;SDS011;7766;51.534;6.722;2024-02-21T08:53:31;13.33;;;4.40;;
15331;SDS011;7766;51.534;6.722;2024-02-21T08:55:57;12.27;;;4.50;;
15331;SDS011;7766;51.534;6.722;2024-02-21T08:58:23;11.83;;;4.93;;
15331;SDS011;7766;51.534;6.722;2024-02-21T09:00:50;12.73;;;3.87;;
15331;SDS011;7766;51.534;6.722;2024-02-21T09:03:16;10.40;;;5.50;;
15331;SDS011;7766;51.534;6.722;2024-02-21T09:05:44;12.10;;;5.33;;
15331;SDS011;7766;51.534;6.722;2024-02-21T09:08:10;11.60;;;4.57;;
15331;SDS011;7766;51.534;6.722;2024-02-21T09:10:36;15.57;;;5.43;;
15331;SDS011;7766;51.534;6.722;2024-02-21T09:13:02;13.33;;;4.77;;
15331;SDS011;7766;51.534;6.722;2024-02-21T09:15:28;12.27;;;5.00;;
15331;SDS011;7766;51.534;6.722;2024-02-21T09:17:54;6.40;;;3.43;;
15331;SDS011;7766;51.534;6.722;2024-02-21T09:20:20;9.43;;;4.53;;
15331;SDS011;7766;51.534;6.722;2024-02-21T09:22:46;14.13;;;5.00;;
15331;SDS011;7766;51.534;6.722;2024-02-21T09:25:12;8.17;;;4.13;;
15331;SDS011;7766;51.534;6.722;2024-02-21T09:27:38;11.73;;;4.70;;
15331;SDS011;7766;51.534;6.722;2024-02-21T09:30:05;10.37;;;4.67;;
15331;SDS011;7766;51.534;6.722;2024-02-21T09:32:31;9.73;;;3.70;;
15331;SDS011;7766;51.534;6.722;2024-02-21T09:34:57;12.23;;;4.13;;
15331;SDS011;7766;51.534;6.722;2024-02-21T09:37:23;8.33;;;4.90;;
15331;SDS011;7766;51.534;6.722;2024-02-21T09:39:49;7.63;;;3.53;;
15331;SDS011;7766;51.534;6.722;2024-02-21T09:42:18;11.30;;;3.90;;
15331;SDS011;7766;51.534;6.722;2024-02-21T09:44:45;9.17;;;4.37;;
15331;SDS011;7766;51.534;6.722;2024-02-21T09:49:58;7.50;;;3.57;;
15331;SDS011;7766;51.534;6.722;2024-02-21T09:52:26;9.93;;;3.80;;
15331;SDS011;7766;51.534;6.722;2024-02-21T09:54:52;9.37;;;3.43;;
15331;SDS011;7766;51.534;6.722;2024-02-21T09:57:18;7.90;;;3.53;;
15331;SDS011;7766;51.534;6.722;2024-02-21T09:59:45;9.40;;;4.47;;
15331;SDS011;7766;51.534;6.722;2024-02-21T10:02:11;9.80;;;5.10;;
15331;SDS011;7766;51.534;6.722;2024-02-21T10:04:37;8.20;;;3.93;;
15331;SDS011;7766;51.534;6.722;2024-02-21T10:07:05;8.23;;;4.17;;
15331;SDS011;7766;51.534;6.722;2024-02-21T10:09:31;7.00;;;3.90;;
15331;SDS011;7766;51.534;6.722;2024-02-21T10:12:10;7.97;;;3.70;;
15331;SDS011;7766;51.534;6.722;2024-02-21T10:14:37;8.97;;;4.13;;
15331;SDS011;7766;51.534;6.722;2024-02-21T10:17:03;7.33;;;3.43;;
15331;SDS011;7766;51.534;6.722;2024-02-21T10:19:34;10.80;;;4.60;;
15331;SDS011;7766;51.534;6.722;2024-02-21T10:22:09;9.20;;;3.80;;
15331;SDS011;7766;51.534;6.722;2024-02-21T10:24:35;6.43;;;2.60;;
15331;SDS011;7766;51.534;6.722;2024-02-21T10:27:03;7.17;;;3.93;;
15331;SDS011;7766;51.534;6.722;2024-02-21T10:29:34;7.90;;;3.27;;
15331;SDS011;7766;51.534;6.722;2024-02-21T10:32:13;8.33;;;3.23;;
15331;SDS011;7766;51.534;6.722;2024-02-21T10:34:39;5.47;;;2.80;;
15331;SDS011;7766;51.534;6.722;2024-02-21T10:37:09;9.00;;;3.33;;
15331;SDS011;7766;51.534;6.722;2024-02-21T10:39:37;5.50;;;2.63;;
15331;SDS011;7766;51.534;6.722;2024-02-21T10:42:03;9.77;;;3.23;;
15331;SDS011;7766;51.534;6.722;2024-02-21T10:44:30;7.93;;;3.60;;
15331;SDS011;7766;51.534;6.722;2024-02-21T10:46:57;10.60;;;2.90;;
15331;SDS011;7766;51.534;6.722;2024-02-21T10:49:23;8.57;;;2.80;;
15331;SDS011;7766;51.534;6.722;2024-02-21T10:51:55;10.00;;;3.20;;
15331;SDS011;7766;51.534;6.722;2024-02-21T10:54:49;7.87;;;2.97;;
15331;SDS011;7766;51.534;6.722;2024-02-21T10:57:19;7.30;;;2.80;;
15331;SDS011;7766;51.534;6.722;2024-02-21T10:59:47;6.93;;;3.00;;
15331;SDS011;7766;51.534;6.722;2024-02-21T11:02:13;7.27;;;2.93;;
15331;SDS011;7766;51.534;6.722;2024-02-21T11:04:40;6.83;;;3.07;;
15331;SDS011;7766;51.534;6.722;2024-02-21T11:07:06;11.50;;;3.47;;
15331;SDS011;7766;51.534;6.722;2024-02-21T11:09:32;7.97;;;3.37;;
15331;SDS011;7766;51.534;6.722;2024-02-21T11:11:58;7.37;;;3.07;;
15331;SDS011;7766;51.534;6.722;2024-02-21T11:14:29;6.33;;;2.60;;
15331;SDS011;7766;51.534;6.722;2024-02-21T11:17:01;11.77;;;3.00;;
15331;SDS011;7766;51.534;6.722;2024-02-21T11:19:28;8.17;;;3.07;;
15331;SDS011;7766;51.534;6.722;2024-02-21T11:21:56;8.17;;;3.30;;
15331;SDS011;7766;51.534;6.722;2024-02-21T11:24:26;9.97;;;2.90;;
15331;SDS011;7766;51.534;6.722;2024-02-21T11:26:53;12.97;;;3.27;;
15331;SDS011;7766;51.534;6.722;2024-02-21T11:29:25;10.83;;;3.30;;
15331;SDS011;7766;51.534;6.722;2024-02-21T11:31:51;8.63;;;3.20;;
15331;SDS011;7766;51.534;6.722;2024-02-21T11:34:17;7.47;;;3.27;;
15331;SDS011;7766;51.534;6.722;2024-02-21T11:36:50;6.60;;;3.10;;
15331;SDS011;7766;51.534;6.722;2024-02-21T11:41:46;8.60;;;2.80;;
15331;SDS011;7766;51.534;6.722;2024-02-21T11:44:13;11.93;;;3.40;;
15331;SDS011;7766;51.534;6.722;2024-02-21T11:46:38;10.90;;;2.87;;
15331;SDS011;7766;51.534;6.722;2024-02-21T11:49:04;11.60;;;3.47;;
15331;SDS011;7766;51.534;6.722;2024-02-21T11:51:30;9.30;;;3.20;;
15331;SDS011;7766;51.534;6.722;2024-02-21T11:53:56;10.77;;;3.73;;
15331;SDS011;7766;51.534;6.722;2024-02-21T11:56:22;5.33;;;3.17;;
15331;SDS011;7766;51.534;6.722;2024-02-21T11:58:48;8.53;;;2.97;;
15331;SDS011;7766;51.534;6.722;2024-02-21T12:01:14;5.97;;;2.70;;
15331;SDS011;7766;51.534;6.722;2024-02-21T12:03:39;6.07;;;3.27;;
15331;SDS011;7766;51.534;6.722;2024-02-21T12:06:06;7.43;;;3.30;;
15331;SDS011;7766;51.534;6.722;2024-02-21T12:08:42;7.30;;;3.30;;
15331;SDS011;7766;51.534;6.722;2024-02-21T12:11:21;8.43;;;2.87;;
15331;SDS011;7766;51.534;6.722;2024-02-21T12:13:47;4.10;;;2.70;;
15331;SDS011;7766;51.534;6.722;2024-02-21T12:16:24;7.20;;;2.80;;
15331;SDS011;7766;51.534;6.722;2024-02-21T12:18:52;8.77;;;2.93;;
15331;SDS011;7766;51.534;6.722;2024-02-21T12:21:19;5.20;;;2.80;;
15331;SDS011;7766;51.534;6.722;2024-02-21T12:23:48;6.33;;;3.10;;
15331;SDS011;7766;51.534;6.722;2024-02-21T12:26:13;7.80;;;3.40;;
15331;SDS011;7766;51.534;6.722;2024-02-21T12:28:39;7.10;;;2.97;;
15331;SDS011;7766;51.534;6.722;2024-02-21T12:31:05;9.87;;;2.83;;
15331;SDS011;7766;51.534;6.722;2024-02-21T12:33:31;10.73;;;3.40;;
15331;SDS011;7766;51.534;6.722;2024-02-21T12:35:58;6.50;;;3.40;;
15331;SDS011;7766;51.534;6.722;2024-02-21T12:38:23;6.13;;;2.97;;
15331;SDS011;7766;51.534;6.722;2024-02-21T12:40:49;5.80;;;3.20;;
15331;SDS011;7766;51.534;6.722;2024-02-21T12:43:15;8.83;;;3.00;;
15331;SDS011;7766;51.534;6.722;2024-02-21T12:45:40;6.37;;;3.10;;
15331;SDS011;7766;51.534;6.722;2024-02-21T12:48:06;9.43;;;3.53;;
15331;SDS011;7766;51.534;6.722;2024-02-21T12:50:32;7.10;;;3.10;;
15331;SDS011;7766;51.534;6.722;2024-02-21T12:52:57;6.70;;;3.40;;
15331;SDS011;7766;51.534;6.722;2024-02-21T12:55:23;5.50;;;2.93;;
15331;SDS011;7766;51.534;6.722;2024-02-21T12:57:49;12.93;;;3.50;;
15331;SDS011;7766;51.534;6.722;2024-02-21T13:00:15;8.60;;;3.33;;
15331;SDS011;7766;51.534;6.722;2024-02-21T13:02:41;4.47;;;2.70;;
15331;SDS011;7766;51.534;6.722;2024-02-21T13:05:07;8.03;;;3.10;;
15331;SDS011;7766;51.534;6.722;2024-02-21T13:07:33;5.60;;;3.17;;
15331;SDS011;7766;51.534;6.722;2024-02-21T13:09:59;5.33;;;2.57;;
15331;SDS011;7766;51.534;6.722;2024-02-21T13:12:25;8.20;;;2.90;;
15331;SDS011;7766;51.534;6.722;2024-02-21T13:14:55;4.10;;;2.87;;
15331;SDS011;7766;51.534;6.722;2024-02-21T13:17:20;9.27;;;2.73;;
15331;SDS011;7766;51.534;6.722;2024-02-21T13:19:47;6.77;;;2.57;;
15331;SDS011;7766;51.534;6.722;2024-02-21T13:22:13;7.53;;;2.97;;
15331;SDS011;7766;51.534;6.722;2024-02-21T13:24:39;8.13;;;2.63;;
15331;SDS011;7766;51.534;6.722;2024-02-21T13:27:05;5.80;;;2.47;;
15331;SDS011;7766;51.534;6.722;2024-02-21T13:29:30;7.93;;;3.07;;
15331;SDS011;7766;51.534;6.722;2024-02-21T13:31:56;7.43;;;3.20;;
15331;SDS011;7766;51.534;6.722;2024-02-21T13:34:22;5.10;;;2.40;;
15331;SDS011;7766;51.534;6.722;2024-02-21T13:36:48;6.03;;;2.67;;
15331;SDS011;7766;51.534;6.722;2024-02-21T13:39:13;8.57;;;3.07;;
15331;SDS011;7766;51.534;6.722;2024-02-21T13:41:44;5.10;;;2.97;;
15331;SDS011;7766;51.534;6.722;2024-02-21T13:44:10;9.80;;;3.07;;
15331;SDS011;7766;51.534;6.722;2024-02-21T13:46:37;10.20;;;2.60;;
15331;SDS011;7766;51.534;6.722;2024-02-21T13:49:05;6.37;;;3.03;;
15331;SDS011;7766;51.534;6.722;2024-02-21T13:51:36;14.43;;;3.60;;
15331;SDS011;7766;51.534;6.722;2024-02-21T13:54:02;8.90;;;3.63;;
15331;SDS011;7766;51.534;6.722;2024-02-21T13:56:29;7.67;;;3.30;;
15331;SDS011;7766;51.534;6.722;2024-02-21T13:58:55;11.83;;;4.33;;
15331;SDS011;7766;51.534;6.722;2024-02-21T14:01:20;9.50;;;3.20;;
15331;SDS011;7766;51.534;6.722;2024-02-21T14:03:46;10.30;;;3.33;;
15331;SDS011;7766;51.534;6.722;2024-02-21T14:06:12;9.27;;;2.93;;
15331;SDS011;7766;51.534;6.722;2024-02-21T14:08:37;7.67;;;3.10;;
15331;SDS011;7766;51.534;6.722;2024-02-21T14:11:04;6.90;;;3.23;;
15331;SDS011;7766;51.534;6.722;2024-02-21T14:13:31;10.90;;;2.83;;
15331;SDS011;7766;51.534;6.722;2024-02-21T14:15:56;7.37;;;3.37;;
15331;SDS011;7766;51.534;6.722;2024-02-21T14:18:22;13.40;;;3.33;;
15331;SDS011;7766;51.534;6.722;2024-02-21T14:20:48;6.93;;;2.83;;
15331;SDS011;7766;51.534;6.722;2024-02-21T14:23:13;9.87;;;3.20;;
15331;SDS011;7766;51.534;6.722;2024-02-21T14:25:39;5.83;;;2.70;;
15331;SDS011;7766;51.534;6.722;2024-02-21T14:28:07;7.07;;;3.00;;
15331;SDS011;7766;51.534;6.722;2024-02-21T14:30:34;8.50;;;2.97;;
15331;SDS011;7766;51.534;6.722;2024-02-21T14:33:00;8.87;;;2.70;;
15331;SDS011;7766;51.534;6.722;2024-02-21T14:35:25;8.97;;;2.60;;
15331;SDS011;7766;51.534;6.722;2024-02-21T14:37:51;9.70;;;3.20;;
15331;SDS011;7766;51.534;6.722;2024-02-21T14:40:18;7.77;;;3.47;;
15331;SDS011;7766;51.534;6.722;2024-02-21T14:42:46;10.30;;;3.07;;
15331;SDS011;7766;51.534;6.722;2024-02-21T14:45:12;11.10;;;3.20;;
15331;SDS011;7766;51.534;6.722;2024-02-21T14:47:38;6.30;;;2.27;;
15331;SDS011;7766;51.534;6.722;2024-02-21T14:50:04;13.37;;;2.60;;
15331;SDS011;7766;51.534;6.722;2024-02-21T14:52:31;12.13;;;2.97;;
15331;SDS011;7766;51.534;6.722;2024-02-21T14:54:57;5.93;;;3.07;;